Time;durP1;ratioP1;P1;durP2;ratioP2;P2;SDS_P1;SDS_P2;PMS_P1;PMS_P2;Temp;Humidity;BMP_temperature;BMP_pressure;BME280_temperature;BME280_humidity;BME280_pressure;Samples;Min_cycle;Max_cycle;Signal;HPM_P1;HPM_P2
2021/08/23 00:01:06;;;;;;;33.63;21.73;;;17.60;89.60;;;;;;5002587;28;20029;-76
2021/08/23 00:03:32;;;;;;;31.90;21.15;;;17.60;89.60;;;;;;4996382;28;20062;-74
2021/08/23 00:05:58;;;;;;;33.10;21.00;;;17.60;89.40;;;;;;5002012;28;20449;-77
2021/08/23 00:08:25;;;;;;;31.05;20.90;;;17.60;89.30;;;;;;4998902;28;20948;-73
2021/08/23 00:10:51;;;;;;;26.10;18.83;;;17.60;89.40;;;;;;5012202;28;20040;-72
2021/08/23 00:13:17;;;;;;;30.15;21.35;;;17.60;89.50;;;;;;5039778;28;20026;-72
2021/08/23 00:15:45;;;;;;;31.90;20.20;;;17.60;89.50;;;;;;5020355;28;20040;-72
2021/08/23 00:18:11;;;;;;;32.55;20.33;;;17.50;89.50;;;;;;5039788;28;20057;-74
2021/08/23 00:20:43;;;;;;;29.65;20.20;;;17.50;89.50;;;;;;5043553;28;20534;-73
2021/08/23 00:23:16;;;;;;;30.42;19.42;;;17.50;89.40;;;;;;5030577;28;20045;-72
2021/08/23 00:25:42;;;;;;;32.60;19.33;;;17.50;89.40;;;;;;5022704;28;20029;-73
2021/08/23 00:28:08;;;;;;;31.63;18.45;;;17.50;89.30;;;;;;5019305;28;20125;-72
2021/08/23 00:30:35;;;;;;;29.98;18.02;;;17.50;89.20;;;;;;5023933;28;20464;-72
2021/08/23 00:33:01;;;;;;;31.08;17.42;;;17.50;89.20;;;;;;5030995;28;20057;-73
2021/08/23 00:35:27;;;;;;;27.67;17.58;;;17.50;89.20;;;;;;5045907;28;20082;-72
2021/08/23 00:37:54;;;;;;;24.90;15.77;;;17.50;89.10;;;;;;5019609;28;20472;-74
2021/08/23 00:40:20;;;;;;;30.05;16.48;;;17.50;89.10;;;;;;5019774;28;20543;-72
2021/08/23 00:42:45;;;;;;;27.63;17.00;;;17.50;89.00;;;;;;5030783;28;20049;-72
2021/08/23 00:45:11;;;;;;;26.38;15.70;;;17.50;89.00;;;;;;5018173;28;20389;-73
2021/08/23 00:47:36;;;;;;;27.42;15.40;;;17.60;89.00;;;;;;5032474;28;20098;-78
2021/08/23 00:50:03;;;;;;;25.88;16.30;;;17.50;89.00;;;;;;5014315;28;20034;-72
2021/08/23 00:52:29;;;;;;;32.05;16.13;;;17.60;88.90;;;;;;5023586;28;20032;-72
2021/08/23 00:54:55;;;;;;;29.48;16.20;;;17.60;88.70;;;;;;5011444;28;20419;-73
2021/08/23 00:57:21;;;;;;;26.88;16.48;;;17.60;88.70;;;;;;4994411;28;20567;-72
2021/08/23 00:59:48;;;;;;;27.60;15.90;;;17.60;88.60;;;;;;5013534;28;20034;-73
2021/08/23 01:02:26;;;;;;;26.95;16.58;;;17.60;88.60;;;;;;5026018;28;20038;-72
2021/08/23 01:05:13;;;;;;;26.55;15.85;;;17.60;88.60;;;;;;5018215;28;20489;-76
2021/08/23 01:08:03;;;;;;;24.73;16.15;;;17.60;88.70;;;;;;4992549;28;20514;-72
2021/08/23 01:10:42;;;;;;;26.67;16.35;;;17.60;88.60;;;;;;4993270;28;20470;-72
2021/08/23 01:13:08;;;;;;;26.13;16.02;;;17.60;88.60;;;;;;4992391;28;20030;-72
2021/08/23 01:15:34;;;;;;;30.02;15.68;;;17.60;88.70;;;;;;4991487;28;20030;-73
2021/08/23 01:18:00;;;;;;;29.20;16.70;;;17.60;88.70;;;;;;4999552;28;20172;-72
2021/08/23 01:20:27;;;;;;;30.70;18.25;;;17.60;88.70;;;;;;4991962;28;20109;-73
2021/08/23 01:22:54;;;;;;;27.00;17.17;;;17.60;88.70;;;;;;5002750;28;20071;-73
2021/08/23 01:25:32;;;;;;;32.20;17.92;;;17.60;88.80;;;;;;5011041;28;20040;-73
2021/08/23 01:28:06;;;;;;;28.35;17.17;;;17.60;88.80;;;;;;5003718;28;20578;-75
2021/08/23 01:30:46;;;;;;;29.90;18.80;;;17.60;88.90;;;;;;5003037;28;20551;-74
2021/08/23 01:33:12;;;;;;;28.27;16.90;;;17.70;88.90;;;;;;4990195;28;20050;-73
2021/08/23 01:35:38;;;;;;;26.33;16.23;;;17.60;89.00;;;;;;4991896;28;20031;-72
2021/08/23 01:38:05;;;;;;;25.95;17.27;;;17.70;89.00;;;;;;5003518;28;20103;-76
2021/08/23 01:40:30;;;;;;;25.50;17.30;;;17.70;89.00;;;;;;4994222;28;20031;-72
2021/08/23 01:42:56;;;;;;;27.40;18.98;;;17.70;89.00;;;;;;5005717;28;20030;-76
2021/08/23 01:45:22;;;;;;;26.23;17.10;;;17.70;89.00;;;;;;5001134;28;20038;-72
2021/08/23 01:47:47;;;;;;;26.80;17.45;;;17.80;89.00;;;;;;5006654;28;20048;-72
2021/08/23 01:50:13;;;;;;;27.92;18.92;;;17.80;89.10;;;;;;5004121;28;20026;-72
2021/08/23 01:52:39;;;;;;;28.15;17.48;;;17.70;89.10;;;;;;5022423;28;20033;-73
2021/08/23 01:55:05;;;;;;;28.63;19.45;;;17.70;89.10;;;;;;5029080;28;20033;-81
2021/08/23 01:57:31;;;;;;;29.58;19.05;;;17.70;89.30;;;;;;5029356;28;20113;-72
2021/08/23 01:59:56;;;;;;;25.75;17.80;;;17.70;89.40;;;;;;5016844;28;20461;-74
2021/08/23 02:02:22;;;;;;;29.65;18.80;;;17.70;89.40;;;;;;5022719;28;20266;-72
2021/08/23 02:04:48;;;;;;;30.45;19.75;;;17.70;89.50;;;;;;5016326;28;20477;-73
2021/08/23 02:07:13;;;;;;;27.63;18.17;;;17.60;89.40;;;;;;5023678;28;20527;-73
2021/08/23 02:09:39;;;;;;;30.10;18.80;;;17.70;89.50;;;;;;5012264;28;20037;-73
2021/08/23 02:12:05;;;;;;;28.92;18.77;;;17.70;89.50;;;;;;5025672;28;20385;-72
2021/08/23 02:14:30;;;;;;;26.88;17.20;;;17.70;89.40;;;;;;5029008;28;20430;-72
2021/08/23 02:16:57;;;;;;;33.70;18.23;;;17.70;89.40;;;;;;5015795;28;20120;-76
2021/08/23 02:19:23;;;;;;;28.17;19.35;;;17.60;89.40;;;;;;5031508;28;20033;-72
2021/08/23 02:21:50;;;;;;;28.52;19.27;;;17.60;89.50;;;;;;5029567;28;20030;-74
2021/08/23 02:24:17;;;;;;;24.92;17.80;;;17.70;89.50;;;;;;5033848;28;20033;-73
2021/08/23 02:26:43;;;;;;;26.00;18.23;;;17.60;89.60;;;;;;5028875;28;20467;-72
2021/08/23 02:29:09;;;;;;;23.55;17.23;;;17.60;89.60;;;;;;5031902;28;20037;-75
2021/08/23 02:31:35;;;;;;;25.05;17.50;;;17.60;89.50;;;;;;5043080;28;20047;-73
2021/08/23 02:34:01;;;;;;;24.27;16.02;;;17.60;89.50;;;;;;5035921;28;20083;-75
2021/08/23 02:36:26;;;;;;;26.75;16.77;;;17.60;89.50;;;;;;5036845;28;20377;-72
2021/08/23 02:38:52;;;;;;;20.15;15.07;;;17.60;89.40;;;;;;5035807;28;20183;-73
2021/08/23 02:41:18;;;;;;;24.80;15.38;;;17.60;89.50;;;;;;5037217;28;20048;-76
2021/08/23 02:43:43;;;;;;;21.48;14.90;;;17.60;89.30;;;;;;5044864;28;20120;-72
2021/08/23 02:46:09;;;;;;;20.25;14.68;;;17.60;89.50;;;;;;5029208;28;20045;-73
2021/08/23 02:48:35;;;;;;;24.08;16.23;;;17.60;89.50;;;;;;5028616;28;20392;-72
2021/08/23 02:51:00;;;;;;;20.65;13.75;;;17.60;89.60;;;;;;5034487;28;20051;-72
2021/08/23 02:53:26;;;;;;;22.73;14.32;;;17.60;89.70;;;;;;5014403;28;20411;-76
2021/08/23 02:55:51;;;;;;;22.58;15.05;;;17.60;89.70;;;;;;5010051;28;20041;-72
2021/08/23 02:58:17;;;;;;;19.30;14.23;;;17.60;89.90;;;;;;5008067;28;20045;-73
2021/08/23 03:00:43;;;;;;;22.60;14.88;;;17.60;89.90;;;;;;5005761;28;20470;-72
2021/08/23 03:03:08;;;;;;;22.17;15.13;;;17.60;90.00;;;;;;5004946;28;20029;-72
2021/08/23 03:05:34;;;;;;;22.35;14.40;;;17.60;90.10;;;;;;5008587;28;20064;-77
2021/08/23 03:08:00;;;;;;;21.88;15.25;;;17.50;90.20;;;;;;5009130;28;20523;-73
2021/08/23 03:10:25;;;;;;;24.63;14.90;;;17.40;90.60;;;;;;5021153;28;20030;-72
2021/08/23 03:12:51;;;;;;;24.13;15.93;;;17.40;90.70;;;;;;5008073;28;20449;-73
2021/08/23 03:15:17;;;;;;;23.83;15.98;;;17.40;90.70;;;;;;5022299;28;20026;-74
2021/08/23 03:17:43;;;;;;;20.77;15.50;;;17.40;90.80;;;;;;5008886;28;20121;-74
2021/08/23 03:20:09;;;;;;;22.48;14.13;;;17.40;90.90;;;;;;5008163;28;20113;-74
2021/08/23 03:22:34;;;;;;;24.75;14.75;;;17.40;90.80;;;;;;5008472;28;20034;-72
2021/08/23 03:25:00;;;;;;;21.20;15.25;;;17.40;90.90;;;;;;5021673;28;20496;-72
2021/08/23 03:27:26;;;;;;;23.98;15.20;;;17.40;91.00;;;;;;5009896;28;20521;-71
2021/08/23 03:29:53;;;;;;;22.92;15.38;;;17.30;91.10;;;;;;5010304;28;20087;-73
2021/08/23 03:32:19;;;;;;;20.00;14.85;;;17.30;91.10;;;;;;5022253;28;20030;-73
2021/08/23 03:34:46;;;;;;;24.13;14.55;;;17.30;91.20;;;;;;5009308;28;20037;-74
2021/08/23 03:37:12;;;;;;;24.88;14.70;;;17.30;91.20;;;;;;5040256;28;20072;-72
2021/08/23 03:39:37;;;;;;;23.80;13.90;;;17.30;91.20;;;;;;5037793;28;20033;-72
2021/08/23 03:42:03;;;;;;;25.67;14.27;;;17.30;91.10;;;;;;5047144;28;20041;-72
2021/08/23 03:44:29;;;;;;;23.85;14.23;;;17.30;91.20;;;;;;5028157;28;20055;-73
2021/08/23 03:46:54;;;;;;;24.60;14.27;;;17.30;91.30;;;;;;5032055;28;20469;-73
2021/08/23 03:49:20;;;;;;;21.20;14.07;;;17.30;91.30;;;;;;5040807;28;20444;-78
2021/08/23 03:51:46;;;;;;;23.73;13.38;;;17.30;91.40;;;;;;5030011;28;20059;-72
2021/08/23 03:54:12;;;;;;;22.67;13.43;;;17.40;91.40;;;;;;5019928;28;20022;-72
2021/08/23 03:56:39;;;;;;;21.88;13.00;;;17.30;91.40;;;;;;5007494;28;20049;-72
2021/08/23 03:59:05;;;;;;;22.92;12.73;;;17.30;91.50;;;;;;5009424;28;20485;-72
2021/08/23 04:01:31;;;;;;;27.50;13.18;;;17.30;91.40;;;;;;5007986;28;20062;-73
2021/08/23 04:03:57;;;;;;;21.88;11.93;;;17.40;91.40;;;;;;5008395;28;20470;-73
2021/08/23 04:06:23;;;;;;;20.40;11.20;;;17.40;91.50;;;;;;5009054;28;20474;-77
2021/08/23 04:08:49;;;;;;;21.30;11.15;;;17.30;91.40;;;;;;5017802;28;20180;-72
2021/08/23 04:11:16;;;;;;;24.48;11.02;;;17.30;91.40;;;;;;5031587;28;20037;-72
2021/08/23 04:13:43;;;;;;;21.10;11.02;;;17.40;91.40;;;;;;5050460;28;20527;-72
2021/08/23 04:16:20;;;;;;;17.33;11.20;;;17.40;91.40;;;;;;5042207;28;20029;-75
2021/08/23 04:18:46;;;;;;;19.10;11.10;;;17.30;91.40;;;;;;5031999;28;20049;-73
2021/08/23 04:21:11;;;;;;;21.40;10.82;;;17.40;91.50;;;;;;5026039;28;20068;-73
2021/08/23 04:23:37;;;;;;;23.92;11.00;;;17.40;91.50;;;;;;5033081;28;20191;-72
2021/08/23 04:26:03;;;;;;;22.48;10.88;;;17.40;91.50;;;;;;5014482;28;20029;-73
2021/08/23 04:28:31;;;;;;;24.27;10.80;;;17.40;91.60;;;;;;5022100;28;20034;-72
2021/08/23 04:30:57;;;;;;;22.58;10.88;;;17.40;91.60;;;;;;5018942;28;20084;-73
2021/08/23 04:33:22;;;;;;;20.75;10.98;;;17.40;91.60;;;;;;5032210;28;20473;-71
2021/08/23 04:35:48;;;;;;;22.58;11.15;;;17.40;91.60;;;;;;5034685;28;20037;-72
2021/08/23 04:38:14;;;;;;;19.98;11.45;;;17.40;91.70;;;;;;5040540;28;20477;-72
2021/08/23 04:40:40;;;;;;;22.48;12.57;;;17.30;91.90;;;;;;5034979;28;20812;-72
2021/08/23 04:43:05;;;;;;;19.20;11.63;;;17.30;92.00;;;;;;5040202;28;20038;-72
2021/08/23 04:45:31;;;;;;;21.35;12.00;;;17.30;92.00;;;;;;5030695;28;20485;-72
2021/08/23 04:47:57;;;;;;;21.02;12.32;;;17.30;91.90;;;;;;5030950;28;20042;-71
2021/08/23 04:50:22;;;;;;;21.48;12.40;;;17.30;91.90;;;;;;5043847;28;20706;-75
2021/08/23 04:52:48;;;;;;;21.08;13.40;;;17.30;92.00;;;;;;5032355;28;20091;-71
2021/08/23 04:55:14;;;;;;;22.80;12.95;;;17.30;91.90;;;;;;5013990;28;20026;-72
2021/08/23 04:57:40;;;;;;;25.15;14.25;;;17.30;91.90;;;;;;5011028;28;20041;-71
2021/08/23 05:00:10;;;;;;;23.23;15.77;;;17.30;91.90;;;;;;5010628;28;20409;-71
2021/08/23 05:02:36;;;;;;;21.60;15.95;;;17.30;91.80;;;;;;5003395;28;20030;-71
2021/08/23 05:05:03;;;;;;;23.13;16.08;;;17.30;91.80;;;;;;5012002;28;20038;-71
2021/08/23 05:07:28;;;;;;;25.00;17.38;;;17.30;91.80;;;;;;5012092;28;20076;-72
2021/08/23 05:09:54;;;;;;;24.75;17.13;;;17.30;91.70;;;;;;5011311;28;20030;-71
2021/08/23 05:12:20;;;;;;;28.17;17.50;;;17.30;91.70;;;;;;5011887;28;20042;-75
2021/08/23 05:14:45;;;;;;;23.65;16.20;;;17.30;91.60;;;;;;5011172;28;20026;-71
2021/08/23 05:17:11;;;;;;;23.25;16.50;;;17.30;91.70;;;;;;5010189;28;20046;-71
2021/08/23 05:19:37;;;;;;;28.35;17.02;;;17.40;91.80;;;;;;5017313;28;20060;-72
2021/08/23 05:22:03;;;;;;;23.08;16.15;;;17.40;91.60;;;;;;5042145;28;20503;-71
2021/08/23 05:24:28;;;;;;;23.15;15.98;;;17.40;91.70;;;;;;5023960;28;20030;-72
2021/08/23 05:26:54;;;;;;;26.67;17.60;;;17.40;91.60;;;;;;5012192;28;20483;-79
2021/08/23 05:29:20;;;;;;;28.50;16.77;;;17.40;91.60;;;;;;5010016;28;20111;-72
2021/08/23 05:31:45;;;;;;;24.10;17.65;;;17.40;91.60;;;;;;5009723;28;20030;-72
2021/08/23 05:34:11;;;;;;;22.73;16.38;;;17.40;91.60;;;;;;5006939;28;20030;-75
2021/08/23 05:36:36;;;;;;;24.85;18.10;;;17.50;91.60;;;;;;5011952;28;20545;-73
2021/08/23 05:39:02;;;;;;;21.75;17.38;;;17.50;91.30;;;;;;5010955;28;20032;-72
2021/08/23 05:41:28;;;;;;;25.98;19.10;;;17.50;91.30;;;;;;5031262;28;20423;-71
2021/08/23 05:43:54;;;;;;;21.80;17.10;;;17.50;91.00;;;;;;5036824;28;20103;-70
2021/08/23 05:46:23;;;;;;;22.98;18.40;;;17.60;90.80;;;;;;5037271;28;20388;-71
2021/08/23 05:48:49;;;;;;;22.63;17.77;;;17.60;90.60;;;;;;5039016;28;20033;-70
2021/08/23 05:51:16;;;;;;;23.10;17.98;;;17.60;90.40;;;;;;5036272;28;20029;-70
2021/08/23 05:53:43;;;;;;;22.67;17.13;;;17.60;90.20;;;;;;5024691;28;20026;-71
2021/08/23 05:56:09;;;;;;;22.73;18.40;;;17.60;90.10;;;;;;5010852;28;20373;-71
2021/08/23 05:58:34;;;;;;;22.00;17.10;;;17.60;89.80;;;;;;5011046;28;20030;-72
2021/08/23 06:01:00;;;;;;;22.10;15.45;;;17.60;89.20;;;;;;5003174;28;20046;-70
2021/08/23 06:03:26;;;;;;;19.85;15.88;;;17.60;88.90;;;;;;5034683;28;20042;-71
2021/08/23 06:05:51;;;;;;;19.23;15.63;;;17.60;88.80;;;;;;5043513;28;20132;-71
2021/08/23 06:08:17;;;;;;;21.85;15.45;;;17.60;88.60;;;;;;5029987;28;20048;-71
2021/08/23 06:10:46;;;;;;;19.52;15.73;;;17.60;88.50;;;;;;5030782;28;20036;-72
2021/08/23 06:13:12;;;;;;;19.52;14.23;;;17.70;88.70;;;;;;5043858;28;20159;-71
2021/08/23 06:15:37;;;;;;;19.60;13.85;;;17.70;88.20;;;;;;5040571;28;20425;-71
2021/08/23 06:18:03;;;;;;;16.85;13.50;;;17.70;88.00;;;;;;5043181;28;20049;-70
2021/08/23 06:20:29;;;;;;;17.27;13.75;;;17.70;88.20;;;;;;5029850;28;20154;-71
2021/08/23 06:22:55;;;;;;;18.63;14.68;;;17.70;88.10;;;;;;5038771;28;20057;-72
2021/08/23 06:25:20;;;;;;;20.00;14.07;;;17.70;87.90;;;;;;5021945;28;20047;-71
2021/08/23 06:27:46;;;;;;;17.73;13.00;;;17.60;88.10;;;;;;5030286;28;20052;-71
2021/08/23 06:30:12;;;;;;;16.88;12.55;;;17.60;87.90;;;;;;5038684;28;20033;-75
2021/08/23 06:32:37;;;;;;;18.67;13.38;;;17.70;88.00;;;;;;5029512;28;20465;-71
2021/08/23 06:35:04;;;;;;;17.35;13.18;;;17.60;87.90;;;;;;5038932;28;20029;-71
2021/08/23 06:37:31;;;;;;;17.33;12.82;;;17.60;88.10;;;;;;5033440;28;20387;-70
2021/08/23 06:39:58;;;;;;;17.65;12.73;;;17.60;88.10;;;;;;5050276;28;20033;-71
2021/08/23 06:42:24;;;;;;;18.60;12.77;;;17.70;87.90;;;;;;5035068;28;20037;-71
2021/08/23 06:44:50;;;;;;;20.77;13.55;;;17.70;87.80;;;;;;5037502;28;20075;-71
2021/08/23 06:47:16;;;;;;;16.42;13.02;;;17.80;87.60;;;;;;5029875;28;20045;-71
2021/08/23 06:49:42;;;;;;;17.42;12.70;;;17.80;87.70;;;;;;5043375;28;20060;-71
2021/08/23 06:52:09;;;;;;;17.10;12.55;;;17.90;87.20;;;;;;5029226;28;20378;-73
2021/08/23 06:54:34;;;;;;;19.98;12.80;;;18.00;87.30;;;;;;5023251;28;20030;-74
2021/08/23 06:57:01;;;;;;;17.55;11.20;;;18.00;87.10;;;;;;5010234;28;20091;-71
2021/08/23 06:59:28;;;;;;;16.90;11.20;;;18.00;87.10;;;;;;5009232;28;20026;-71
2021/08/23 07:01:54;;;;;;;20.50;10.95;;;18.10;86.80;;;;;;5008882;28;20076;-71
2021/08/23 07:04:20;;;;;;;17.35;10.52;;;18.00;86.40;;;;;;5008384;28;20034;-71
2021/08/23 07:06:46;;;;;;;15.77;10.48;;;18.10;86.40;;;;;;5008265;28;20125;-71
2021/08/23 07:09:12;;;;;;;14.85;9.65;;;18.10;86.20;;;;;;5007527;28;20037;-71
2021/08/23 07:11:37;;;;;;;17.33;9.63;;;18.00;86.00;;;;;;5009956;28;20053;-74
2021/08/23 07:14:03;;;;;;;12.75;9.20;;;18.10;85.80;;;;;;5008287;28;20104;-71
2021/08/23 07:16:29;;;;;;;16.15;9.45;;;18.10;85.80;;;;;;5008287;28;20038;-71
2021/08/23 07:18:55;;;;;;;14.20;7.93;;;18.10;85.60;;;;;;5008877;28;20457;-71
2021/08/23 07:21:21;;;;;;;14.68;8.90;;;18.10;85.50;;;;;;5022276;28;20411;-71
2021/08/23 07:23:46;;;;;;;14.65;7.82;;;18.10;85.50;;;;;;5026207;28;20057;-71
2021/08/23 07:26:12;;;;;;;14.35;8.10;;;18.20;85.30;;;;;;5009402;28;20045;-71
2021/08/23 07:28:38;;;;;;;12.38;7.63;;;18.30;84.20;;;;;;5010170;28;20418;-71
2021/08/23 07:31:04;;;;;;;15.02;7.90;;;18.40;84.40;;;;;;5016825;28;20038;-71
2021/08/23 07:33:30;;;;;;;15.13;7.72;;;18.40;84.20;;;;;;5017871;28;20058;-71
2021/08/23 07:35:56;;;;;;;14.55;7.82;;;18.40;83.70;;;;;;5009886;28;20060;-71
2021/08/23 07:38:21;;;;;;;12.95;6.82;;;18.40;83.50;;;;;;5009960;28;20164;-71
2021/08/23 07:40:47;;;;;;;10.98;6.45;;;18.40;83.40;;;;;;5009891;28;20038;-72
2021/08/23 07:43:14;;;;;;;10.38;6.78;;;18.40;83.60;;;;;;5011767;28;20046;-70
2021/08/23 07:45:39;;;;;;;11.48;6.97;;;18.40;83.50;;;;;;5037785;28;20385;-71
2021/08/23 07:48:06;;;;;;;14.82;7.20;;;18.50;83.30;;;;;;5039194;28;20052;-70
2021/08/23 07:50:32;;;;;;;13.05;8.02;;;18.60;83.30;;;;;;5040218;28;20033;-70
2021/08/23 07:52:57;;;;;;;12.20;7.53;;;18.50;82.90;;;;;;5040763;28;20044;-70
2021/08/23 07:55:23;;;;;;;12.90;7.35;;;18.50;83.10;;;;;;5043844;28;20067;-70
2021/08/23 07:57:50;;;;;;;13.93;8.00;;;18.40;83.10;;;;;;5039416;28;20460;-72
2021/08/23 08:00:17;;;;;;;12.07;7.53;;;18.40;82.80;;;;;;5036576;28;20029;-72
2021/08/23 08:02:43;;;;;;;15.63;7.72;;;18.30;82.80;;;;;;5029240;28;20040;-71
2021/08/23 08:05:09;;;;;;;12.43;7.50;;;18.40;83.10;;;;;;5042870;28;20037;-71
2021/08/23 08:07:35;;;;;;;15.50;7.53;;;18.30;82.70;;;;;;5041112;28;20488;-71
2021/08/23 08:10:01;;;;;;;13.07;7.90;;;18.40;82.80;;;;;;5037873;28;20041;-72
2021/08/23 08:12:26;;;;;;;13.43;8.02;;;18.30;82.70;;;;;;5051885;28;20384;-71
2021/08/23 08:14:54;;;;;;;14.57;8.38;;;18.30;82.50;;;;;;5038165;28;20507;-72
2021/08/23 08:17:21;;;;;;;16.65;9.20;;;18.40;82.50;;;;;;5034214;28;20048;-71
2021/08/23 08:19:47;;;;;;;18.02;10.10;;;18.60;82.30;;;;;;5028293;28;20446;-72
2021/08/23 08:22:13;;;;;;;15.02;9.50;;;18.60;81.40;;;;;;5030536;28;20061;-71
2021/08/23 08:24:39;;;;;;;18.35;10.02;;;18.70;81.40;;;;;;5022004;28;20022;-71
2021/08/23 08:27:05;;;;;;;16.65;10.75;;;19.00;81.10;;;;;;5010340;28;20092;-71
2021/08/23 08:29:31;;;;;;;19.25;10.13;;;19.00;80.80;;;;;;5011748;28;20030;-71
2021/08/23 08:31:57;;;;;;;15.75;9.18;;;19.10;80.30;;;;;;5011644;28;20478;-71
2021/08/23 08:34:23;;;;;;;16.77;10.13;;;19.00;80.30;;;;;;5011229;28;20081;-71
2021/08/23 08:36:49;;;;;;;15.40;10.10;;;19.00;80.40;;;;;;5022886;28;20515;-73
2021/08/23 08:39:14;;;;;;;16.17;9.77;;;19.10;80.20;;;;;;5011457;28;20458;-72
2021/08/23 08:41:40;;;;;;;16.77;9.43;;;19.40;79.90;;;;;;5020120;28;20461;-71
2021/08/23 08:44:06;;;;;;;12.23;7.55;;;19.90;78.20;;;;;;5030767;28;20057;-72
2021/08/23 08:46:34;;;;;;;15.07;7.75;;;20.20;75.80;;;;;;5012413;28;20374;-71
2021/08/23 08:49:03;;;;;;;11.95;7.25;;;20.60;75.00;;;;;;5011830;28;20152;-71
2021/08/23 08:51:30;;;;;;;15.18;7.53;;;21.00;73.00;;;;;;5033067;28;20075;-71
2021/08/23 08:53:55;;;;;;;10.95;6.63;;;21.10;72.90;;;;;;5036092;28;20099;-71
2021/08/23 08:56:21;;;;;;;11.13;7.38;;;21.00;73.20;;;;;;5030199;28;20449;-71
2021/08/23 08:58:47;;;;;;;12.82;7.70;;;21.00;71.60;;;;;;5030563;28;20033;-72
2021/08/23 09:01:13;;;;;;;14.00;7.15;;;21.10;72.40;;;;;;5022145;28;20500;-70
2021/08/23 09:03:45;;;;;;;12.27;7.07;;;21.30;71.80;;;;;;5043100;28;20025;-71
2021/08/23 09:06:10;;;;;;;12.48;7.00;;;21.20;71.80;;;;;;5039997;28;20025;-71
2021/08/23 09:08:46;;;;;;;10.35;6.82;;;21.00;72.70;;;;;;5030448;28;20045;-70
2021/08/23 09:11:15;;;;;;;14.38;6.88;;;21.00;72.20;;;;;;5033191;28;20380;-71
2021/08/23 09:13:55;;;;;;;15.63;7.10;;;20.80;72.30;;;;;;5031678;28;20061;-72
2021/08/23 09:16:29;;;;;;;13.43;6.07;;;20.70;73.20;;;;;;5031098;28;20437;-71
2021/08/23 09:18:56;;;;;;;10.18;5.57;;;20.60;73.50;;;;;;5042354;28;20033;-71
2021/08/23 09:21:33;;;;;;;11.00;5.70;;;20.50;73.90;;;;;;5028969;28;20087;-70
2021/08/23 09:23:59;;;;;;;9.20;5.50;;;20.50;73.50;;;;;;5038428;28;20128;-74
2021/08/23 09:26:33;;;;;;;9.73;5.00;;;20.30;73.80;;;;;;5031025;28;20510;-72
2021/08/23 09:29:04;;;;;;;;;;;20.30;74.00;;;;;;5045000;28;20387;-71
2021/08/23 09:31:32;;;;;;;10.27;5.22;;;20.40;73.30;;;;;;5022986;28;19992;-71
2021/08/23 09:34:00;;;;;;;9.88;5.45;;;20.70;73.20;;;;;;5034031;28;20143;-71
2021/08/23 09:36:27;;;;;;;9.38;5.38;;;21.00;73.00;;;;;;5051295;28;20063;-70
2021/08/23 09:39:00;;;;;;;10.13;5.22;;;20.80;73.20;;;;;;5029887;28;20120;-72
2021/08/23 09:41:26;;;;;;;12.05;5.35;;;20.70;72.60;;;;;;5049779;28;20029;-71
2021/08/23 09:44:02;;;;;;;11.43;5.10;;;20.60;73.00;;;;;;5043685;28;20033;-71
2021/08/23 09:46:28;;;;;;;10.65;5.18;;;20.50;73.30;;;;;;5030690;28;20050;-71
2021/08/23 09:48:54;;;;;;;11.43;5.50;;;20.50;72.80;;;;;;5044002;28;20419;-71
2021/08/23 09:51:24;;;;;;;8.32;5.07;;;20.50;72.80;;;;;;5036900;28;20060;-71
2021/08/23 09:53:50;;;;;;;8.77;5.07;;;20.60;73.50;;;;;;5032713;28;20091;-70
2021/08/23 09:56:16;;;;;;;9.20;4.80;;;20.70;72.90;;;;;;5040110;28;20029;-70
2021/08/23 09:58:42;;;;;;;9.27;4.63;;;20.60;72.20;;;;;;5036127;28;20029;-71
2021/08/23 10:01:09;;;;;;;8.18;4.72;;;20.60;72.40;;;;;;5040375;28;20461;-72
2021/08/23 10:03:36;;;;;;;9.82;5.00;;;20.70;71.50;;;;;;5029507;28;20025;-70
2021/08/23 10:06:02;;;;;;;10.52;5.22;;;20.80;71.80;;;;;;5022047;28;20034;-71
2021/08/23 10:08:31;;;;;;;10.93;5.03;;;20.80;71.20;;;;;;5026651;28;20044;-71
2021/08/23 10:10:56;;;;;;;10.60;4.57;;;20.90;70.30;;;;;;5030734;28;20072;-71
2021/08/23 10:13:23;;;;;;;9.63;4.95;;;21.00;70.40;;;;;;5030392;28;20049;-70
2021/08/23 10:15:49;;;;;;;11.35;5.22;;;20.80;69.60;;;;;;5030601;28;20041;-70
2021/08/23 10:18:15;;;;;;;10.20;4.90;;;20.60;70.60;;;;;;5039058;28;20040;-72
2021/08/23 10:20:41;;;;;;;10.95;4.80;;;20.50;71.80;;;;;;5024674;28;20468;-70
2021/08/23 10:23:08;;;;;;;11.40;5.00;;;20.60;71.80;;;;;;5034666;28;20085;-70
2021/08/23 10:25:35;;;;;;;8.85;4.07;;;20.80;70.90;;;;;;5009669;28;20026;-71
2021/08/23 10:28:09;;;;;;;10.38;4.68;;;20.80;68.70;;;;;;5009263;28;20064;-72
2021/08/23 10:30:37;;;;;;;8.30;3.90;;;20.80;68.70;;;;;;5010496;28;20462;-70
2021/08/23 10:33:17;;;;;;;8.38;4.00;;;20.90;68.20;;;;;;5010057;28;20034;-71
2021/08/23 10:35:56;;;;;;;7.30;3.85;;;20.60;68.20;;;;;;5036044;28;20032;-70
2021/08/23 10:38:24;;;;;;;7.07;3.80;;;20.70;68.20;;;;;;5034464;28;20071;-71
2021/08/23 10:41:10;;;;;;;8.40;3.95;;;20.70;67.90;;;;;;5033344;28;20164;-71
2021/08/23 10:43:52;;;;;;;8.07;4.05;;;20.80;67.20;;;;;;5016847;28;20038;-71
2021/08/23 10:46:27;;;;;;;10.15;4.32;;;21.00;68.10;;;;;;5010365;28;20030;-71
2021/08/23 10:48:55;;;;;;;8.05;4.22;;;21.10;67.20;;;;;;5008933;28;20120;-71
2021/08/23 10:51:40;;;;;;;9.82;4.50;;;21.20;67.20;;;;;;5007571;28;20134;-71
2021/08/23 10:54:35;;;;;;;7.85;3.95;;;21.20;68.70;;;;;;5009074;28;20049;-72
2021/08/23 10:57:01;;;;;;;8.70;4.55;;;21.10;68.10;;;;;;5028916;28;20041;-72
2021/08/23 10:59:48;;;;;;;8.60;5.22;;;21.30;68.70;;;;;;5029977;28;20036;-72
2021/08/23 11:02:16;;;;;;;8.75;4.95;;;21.20;68.60;;;;;;4998289;28;20491;-71
2021/08/23 11:04:54;;;;;;;7.55;4.43;;;21.30;67.80;;;;;;5021137;28;20033;-76
2021/08/23 11:07:28;;;;;;;11.25;4.70;;;21.30;67.10;;;;;;5029157;28;20044;-71
2021/08/23 11:10:06;;;;;;;8.00;4.72;;;21.60;68.00;;;;;;5015274;28;20074;-71
2021/08/23 11:13:05;;;;;;;7.75;5.00;;;21.80;67.20;;;;;;5015299;28;20389;-73
2021/08/23 11:15:31;;;;;;;9.30;4.50;;;22.00;67.60;;;;;;5026443;28;20112;-71
2021/08/23 11:17:59;;;;;;;9.57;4.65;;;22.10;65.70;;;;;;5031867;28;20133;-71
2021/08/23 11:20:29;;;;;;;11.23;4.90;;;22.10;65.80;;;;;;5038367;28;20060;-71
2021/08/23 11:23:00;;;;;;;7.90;4.32;;;22.20;66.20;;;;;;5033858;28;20069;-71
2021/08/23 11:25:27;;;;;;;11.23;4.97;;;22.30;66.20;;;;;;5025773;28;20075;-71
2021/08/23 11:27:53;;;;;;;12.75;5.80;;;22.20;66.80;;;;;;5050902;28;20094;-72
2021/08/23 11:30:27;;;;;;;12.82;5.05;;;22.10;66.50;;;;;;5051380;28;20120;-71
2021/08/23 11:32:52;;;;;;;12.05;5.68;;;22.00;67.10;;;;;;5041763;28;20306;-71
2021/08/23 11:35:18;;;;;;;9.00;5.28;;;21.90;67.60;;;;;;5043784;28;20111;-71
2021/08/23 11:37:46;;;;;;;10.48;5.93;;;21.80;66.30;;;;;;5056938;28;20037;-71
2021/08/23 11:40:12;;;;;;;9.75;5.88;;;21.70;66.90;;;;;;5040556;28;20036;-71
2021/08/23 11:42:37;;;;;;;9.52;6.07;;;22.10;66.10;;;;;;5031970;28;20387;-75
2021/08/23 11:45:04;;;;;;;11.02;5.72;;;22.10;66.00;;;;;;5031865;28;20045;-73
2021/08/23 11:47:33;;;;;;;9.57;5.05;;;22.50;65.60;;;;;;5048084;28;20060;-70
2021/08/23 11:50:00;;;;;;;10.27;5.13;;;22.60;64.40;;;;;;5053566;28;20472;-71
2021/08/23 11:52:26;;;;;;;9.15;5.10;;;22.50;64.30;;;;;;5039119;28;20029;-75
2021/08/23 11:54:54;;;;;;;8.90;4.90;;;22.40;62.60;;;;;;5020542;28;20388;-71
2021/08/23 11:57:22;;;;;;;9.13;4.78;;;22.20;63.00;;;;;;5010539;28;20041;-70
2021/08/23 11:59:56;;;;;;;12.48;5.80;;;22.40;65.00;;;;;;5012025;28;20469;-71
2021/08/23 12:02:29;;;;;;;10.40;5.47;;;22.10;64.70;;;;;;5029086;28;20112;-71
2021/08/23 12:05:15;;;;;;;11.23;5.13;;;22.00;65.80;;;;;;5052903;28;20043;-72
2021/08/23 12:07:49;;;;;;;8.32;4.85;;;22.30;65.60;;;;;;5037469;28;20099;-71
2021/08/23 12:10:36;;;;;;;9.35;4.70;;;22.60;63.80;;;;;;5049819;28;20025;-71
2021/08/23 12:13:11;;;;;;;13.52;5.00;;;23.00;60.90;;;;;;5052156;28;20066;-71
2021/08/23 12:15:56;;;;;;;8.60;4.90;;;22.80;62.60;;;;;;5043048;28;20105;-70
2021/08/23 12:18:36;;;;;;;12.23;4.45;;;23.10;62.80;;;;;;5038965;28;20052;-71
2021/08/23 12:21:29;;;;;;;9.55;4.57;;;23.00;60.90;;;;;;5054461;28;20041;-71
2021/08/23 12:24:02;;;;;;;9.35;4.38;;;23.00;59.70;;;;;;5036639;28;20058;-71
2021/08/23 12:26:31;;;;;;;7.20;4.28;;;23.20;60.20;;;;;;5032503;28;20056;-71
2021/08/23 12:29:00;;;;;;;7.63;4.43;;;23.20;58.80;;;;;;5029894;28;20042;-71
2021/08/23 12:31:26;;;;;;;7.20;3.83;;;23.30;58.30;;;;;;5022423;28;20025;-71
2021/08/23 12:33:52;;;;;;;9.80;4.50;;;23.00;58.40;;;;;;5032149;28;20075;-72
2021/08/23 12:36:17;;;;;;;10.70;4.10;;;22.70;59.60;;;;;;5032390;28;20037;-71